Time;durP1;ratioP1;P1;durP2;ratioP2;P2;SDS_P1;SDS_P2;PMS_P1;PMS_P2;Temp;Humidity;BMP_temperature;BMP_pressure;BME280_temperature;BME280_humidity;BME280_pressure;Samples;Min_cycle;Max_cycle;Signal;HPM_P1;HPM_P2
2021/11/05 00:00:33;;;;;;;;;6.75;6.00;;;;;;;;5058017;28;46118;-73
2021/11/05 00:02:58;;;;;;;;;6.00;5.50;;;;;;;;5058303;28;45298;-75
2021/11/05 00:05:24;;;;;;;;;6.00;5.75;;;;;;;;5058630;28;45291;-74
2021/11/05 00:07:50;;;;;;;;;7.50;5.75;;;;;;;;5058769;28;45444;-78
2021/11/05 00:10:15;;;;;;;;;7.00;6.75;;;;;;;;5056460;28;46983;-72
2021/11/05 00:12:41;;;;;;;;;3.00;3.00;;;;;;;;5057980;28;45327;-74
2021/11/05 00:15:06;;;;;;;;;8.00;4.25;;;;;;;;5057275;28;45323;-74
2021/11/05 00:17:32;;;;;;;;;5.75;4.00;;;;;;;;5058029;28;45655;-73
2021/11/05 00:19:57;;;;;;;;;5.75;4.75;;;;;;;;5056679;28;47287;-76
2021/11/05 00:22:22;;;;;;;;;4.25;4.25;;;;;;;;5057249;28;45335;-73
2021/11/05 00:24:48;;;;;;;;;5.50;4.25;;;;;;;;5058094;28;45441;-71
2021/11/05 00:27:13;;;;;;;;;5.00;5.00;;;;;;;;5058731;28;45390;-73
2021/11/05 00:29:41;;;;;;;;;5.00;4.50;;;;;;;;5058060;28;45346;-73
2021/11/05 00:32:06;;;;;;;;;6.00;3.25;;;;;;;;5057949;28;45258;-72
2021/11/05 00:34:32;;;;;;;;;4.00;4.00;;;;;;;;5059119;28;45386;-73
2021/11/05 00:36:57;;;;;;;;;5.00;4.50;;;;;;;;5058862;28;45614;-74
2021/11/05 00:39:22;;;;;;;;;5.00;4.00;;;;;;;;5058029;28;46354;-74
2021/11/05 00:41:47;;;;;;;;;6.75;5.25;;;;;;;;5057307;28;45228;-72
2021/11/05 00:44:13;;;;;;;;;4.50;4.50;;;;;;;;5056195;28;45369;-75
2021/11/05 00:46:38;;;;;;;;;4.25;4.00;;;;;;;;5057118;28;45342;-75
2021/11/05 00:49:03;;;;;;;;;5.00;4.25;;;;;;;;5057357;28;46423;-75
2021/11/05 00:51:28;;;;;;;;;6.50;4.00;;;;;;;;5057140;28;45362;-75
2021/11/05 00:53:54;;;;;;;;;6.00;4.00;;;;;;;;5057861;28;45349;-74
2021/11/05 00:56:19;;;;;;;;;5.75;4.50;;;;;;;;5056025;28;45332;-71
2021/11/05 00:58:45;;;;;;;;;7.25;5.75;;;;;;;;5057123;28;45713;-72
2021/11/05 01:01:10;;;;;;;;;6.75;4.75;;;;;;;;5057409;28;45405;-74
2021/11/05 01:03:35;;;;;;;;;5.00;4.50;;;;;;;;5057911;28;45812;-73
2021/11/05 01:06:01;;;;;;;;;7.25;4.75;;;;;;;;5056567;28;45433;-74
2021/11/05 01:08:26;;;;;;;;;7.25;4.00;;;;;;;;5058210;28;45496;-74
2021/11/05 01:10:51;;;;;;;;;9.75;4.50;;;;;;;;5057862;28;45370;-74
2021/11/05 01:13:17;;;;;;;;;3.00;3.00;;;;;;;;5057944;28;45453;-74
2021/11/05 01:15:42;;;;;;;;;8.00;5.00;;;;;;;;5057958;28;45267;-75
2021/11/05 01:18:07;;;;;;;;;5.25;4.00;;;;;;;;5057649;28;46198;-75
2021/11/05 01:20:33;;;;;;;;;4.50;3.00;;;;;;;;5056277;28;45554;-70
2021/11/05 01:22:58;;;;;;;;;8.25;4.50;;;;;;;;5056777;28;45283;-72
2021/11/05 01:25:23;;;;;;;;;5.75;5.75;;;;;;;;5057709;28;45402;-73
2021/11/05 01:27:49;;;;;;;;;4.25;4.25;;;;;;;;5056058;28;48127;-75
2021/11/05 01:30:15;;;;;;;;;5.00;4.00;;;;;;;;5057116;28;45365;-73
2021/11/05 01:32:41;;;;;;;;;4.50;4.00;;;;;;;;5057427;28;45218;-75
2021/11/05 01:35:07;;;;;;;;;6.50;4.75;;;;;;;;5057269;28;45346;-72
2021/11/05 01:37:32;;;;;;;;;4.00;3.00;;;;;;;;5056976;28;45335;-74
2021/11/05 01:39:58;;;;;;;;;5.00;5.00;;;;;;;;5057061;28;45338;-75
2021/11/05 01:42:23;;;;;;;;;7.00;3.50;;;;;;;;5055625;28;45283;-74
2021/11/05 01:44:49;;;;;;;;;4.50;3.50;;;;;;;;5055675;28;45699;-76
2021/11/05 01:47:14;;;;;;;;;7.75;5.00;;;;;;;;5056683;28;46630;-75
2021/11/05 01:49:39;;;;;;;;;5.25;4.75;;;;;;;;5055424;28;45221;-74
2021/11/05 01:52:06;;;;;;;;;7.25;4.75;;;;;;;;5056982;28;45757;-71
2021/11/05 01:54:31;;;;;;;;;6.00;6.00;;;;;;;;5056796;28;45611;-73
2021/11/05 01:56:56;;;;;;;;;5.25;5.00;;;;;;;;5056470;28;45396;-71
2021/11/05 01:59:29;;;;;;;;;4.00;3.50;;;;;;;;5055649;28;45386;-71
2021/11/05 02:01:55;;;;;;;;;7.25;5.00;;;;;;;;5056519;28;45553;-70
2021/11/05 02:04:20;;;;;;;;;6.25;5.00;;;;;;;;5056851;28;45367;-72
2021/11/05 02:06:47;;;;;;;;;7.25;3.25;;;;;;;;5055909;28;46443;-72
2021/11/05 02:09:13;;;;;;;;;6.00;5.75;;;;;;;;5056430;28;45413;-75
2021/11/05 02:11:38;;;;;;;;;6.50;5.00;;;;;;;;5056610;28;45354;-71
2021/11/05 02:14:05;;;;;;;;;5.00;2.00;;;;;;;;5056525;28;45416;-74
2021/11/05 02:16:30;;;;;;;;;5.00;3.00;;;;;;;;5056452;28;45354;-74
2021/11/05 02:18:56;;;;;;;;;7.75;4.75;;;;;;;;5055922;28;45184;-74
2021/11/05 02:21:23;;;;;;;;;4.25;4.25;;;;;;;;5056331;28;45447;-72
2021/11/05 02:23:48;;;;;;;;;5.25;5.25;;;;;;;;5056447;28;45247;-74
2021/11/05 02:26:13;;;;;;;;;7.00;6.25;;;;;;;;5056174;28;46131;-75
2021/11/05 02:28:39;;;;;;;;;6.25;5.75;;;;;;;;5056072;28;45323;-72
2021/11/05 02:31:05;;;;;;;;;6.75;5.00;;;;;;;;5056329;28;45228;-71
2021/11/05 02:33:30;;;;;;;;;5.75;4.25;;;;;;;;5056706;28;45373;-74
2021/11/05 02:35:56;;;;;;;;;6.00;5.00;;;;;;;;5056395;28;45957;-75
2021/11/05 02:38:21;;;;;;;;;4.25;3.75;;;;;;;;5056965;28;45468;-74
2021/11/05 02:40:46;;;;;;;;;5.25;5.00;;;;;;;;5056289;28;45375;-73
2021/11/05 02:43:12;;;;;;;;;6.25;5.00;;;;;;;;5056231;28;45601;-74
2021/11/05 02:45:45;;;;;;;;;5.25;3.00;;;;;;;;5055754;28;45565;-73
2021/11/05 02:48:10;;;;;;;;;5.00;4.00;;;;;;;;5054670;28;45653;-71
2021/11/05 02:50:36;;;;;;;;;7.75;5.75;;;;;;;;5055937;28;45464;-69
2021/11/05 02:53:01;;;;;;;;;4.00;4.00;;;;;;;;5054823;28;45587;-69
2021/11/05 02:55:26;;;;;;;;;5.50;3.50;;;;;;;;5055716;28;46203;-75
2021/11/05 02:57:52;;;;;;;;;4.00;4.00;;;;;;;;5054406;28;45326;-76
2021/11/05 03:00:17;;;;;;;;;6.25;5.25;;;;;;;;5056082;28;45432;-74
2021/11/05 03:02:42;;;;;;;;;6.75;4.00;;;;;;;;5056302;28;45294;-73
2021/11/05 03:05:08;;;;;;;;;6.50;3.75;;;;;;;;5055614;28;45608;-73
2021/11/05 03:07:33;;;;;;;;;7.50;4.25;;;;;;;;5056586;28;45418;-76
2021/11/05 03:09:58;;;;;;;;;7.75;4.50;;;;;;;;5056941;28;45366;-71
2021/11/05 03:12:24;;;;;;;;;8.75;3.25;;;;;;;;5059575;28;46156;-71
2021/11/05 03:14:49;;;;;;;;;4.00;4.00;;;;;;;;5059409;28;45664;-71
2021/11/05 03:17:15;;;;;;;;;5.00;4.00;;;;;;;;5059343;28;45924;-73
2021/11/05 03:19:40;;;;;;;;;4.50;4.25;;;;;;;;5059239;28;45355;-73
2021/11/05 03:22:05;;;;;;;;;6.25;4.00;;;;;;;;5059297;28;45484;-73
2021/11/05 03:24:31;;;;;;;;;5.00;4.00;;;;;;;;5059830;28;45215;-76
2021/11/05 03:26:56;;;;;;;;;7.75;4.00;;;;;;;;5060013;28;45185;-71
2021/11/05 03:29:22;;;;;;;;;6.50;4.25;;;;;;;;5059454;28;45397;-71
2021/11/05 03:31:48;;;;;;;;;4.75;4.75;;;;;;;;5059149;28;45231;-75
2021/11/05 03:34:13;;;;;;;;;8.25;4.00;;;;;;;;5057257;28;46974;-71
2021/11/05 03:36:38;;;;;;;;;6.25;3.75;;;;;;;;5057525;28;45231;-67
2021/11/05 03:52:26;;;;;;;;;6.75;3.75;;;;;7.91;99.34;101186.59;5068474;28;45269;-69
2021/11/05 03:54:51;;;;;;;;;8.25;6.00;;;;;7.95;99.50;101198.75;5049456;28;45315;-69
2021/11/05 03:57:17;;;;;;;;;5.00;3.75;;;;;7.94;99.43;101197.03;5050627;28;45298;-71
2021/11/05 03:59:42;;;;;;;;;6.00;4.75;;;;;7.96;99.31;101197.00;5049962;28;45328;-69
2021/11/05 04:02:08;;;;;;;;;4.75;4.75;;;;;7.95;98.83;101193.50;5049489;28;47251;-69
2021/11/05 04:04:33;;;;;;;;;6.75;3.50;;;;;7.96;98.47;101199.63;5049244;28;45472;-70
2021/11/05 04:06:58;;;;;;;;;5.50;3.00;;;;;7.96;99.44;101210.09;5049260;28;45363;-69
2021/11/05 04:09:24;;;;;;;;;4.75;4.00;;;;;7.91;98.92;101204.94;5054575;28;45287;-69
2021/11/05 04:11:49;;;;;;;;;4.25;4.00;;;;;7.95;99.49;101214.47;5050521;28;46065;-69
2021/11/05 04:14:15;;;;;;;;;5.50;2.25;;;;;8.00;99.20;101222.25;5049482;28;45398;-69
2021/11/05 04:16:41;;;;;;;;;4.25;4.00;;;;;8.01;98.96;101224.81;5048952;28;45385;-70
2021/11/05 04:19:06;;;;;;;;;4.00;3.00;;;;;7.96;99.43;101220.59;5064683;28;45312;-69
2021/11/05 04:21:32;;;;;;;;;3.50;3.00;;;;;7.94;98.96;101227.56;5048437;28;46158;-70
2021/11/05 04:23:58;;;;;;;;;5.50;3.75;;;;;7.96;98.86;101241.53;5047071;28;45457;-69
2021/11/05 04:26:23;;;;;;;;;6.00;4.00;;;;;7.95;99.07;101240.66;5048732;28;45332;-69
2021/11/05 04:28:49;;;;;;;;;7.00;5.00;;;;;7.98;98.84;101252.84;5048649;28;45245;-70
2021/11/05 04:31:14;;;;;;;;;5.25;3.00;;;;;7.96;98.32;101247.63;5048645;28;45315;-69
2021/11/05 04:33:40;;;;;;;;;5.50;3.50;;;;;8.00;98.37;101253.69;5051257;28;45167;-69
2021/11/05 04:36:07;;;;;;;;;4.50;3.00;;;;;8.01;98.54;101258.03;5049317;28;45303;-70
2021/11/05 04:38:33;;;;;;;;;5.50;2.75;;;;;8.01;98.17;101260.66;5048675;28;45396;-69
2021/11/05 04:40:58;;;;;;;;;2.75;2.75;;;;;7.99;98.51;101258.06;5048473;28;46200;-68
2021/11/05 04:43:24;;;;;;;;;5.50;4.00;;;;;8.02;98.42;101267.63;5048531;28;48068;-70
2021/11/05 04:45:49;;;;;;;;;5.25;3.50;;;;;7.99;98.11;101268.53;5049853;28;45419;-69
2021/11/05 04:48:15;;;;;;;;;5.50;4.00;;;;;7.99;97.87;101272.91;5053610;28;45540;-69
2021/11/05 04:50:41;;;;;;;;;4.75;3.25;;;;;7.97;98.25;101272.09;5055380;28;45441;-69
2021/11/05 04:53:07;;;;;;;;;5.00;3.00;;;;;7.98;98.32;101276.44;5036703;28;45363;-70
2021/11/05 04:55:33;;;;;;;;;3.00;3.00;;;;;7.93;98.22;101279.13;5036420;28;45315;-70
2021/11/05 04:57:59;;;;;;;;;3.25;3.25;;;;;7.95;96.96;101293.06;5034830;28;45344;-69
2021/11/05 05:00:26;;;;;;;;;6.00;4.00;;;;;7.91;97.57;101278.28;5034624;28;46531;-70
2021/11/05 05:02:54;;;;;;;;;5.00;4.00;;;;;7.96;97.75;101291.31;5034743;28;45391;-70
2021/11/05 05:05:20;;;;;;;;;5.00;4.00;;;;;7.92;97.91;101281.75;5034862;28;45458;-70
2021/11/05 05:07:46;;;;;;;;;6.50;4.00;;;;;7.98;97.89;101293.00;5034804;28;45397;-71
2021/11/05 05:10:12;;;;;;;;;5.75;3.25;;;;;7.99;97.99;101291.25;5035081;28;45426;-71
2021/11/05 05:12:38;;;;;;;;;3.50;3.00;;;;;7.94;97.25;101286.09;5034807;28;45298;-70
2021/11/05 05:15:06;;;;;;;;;2.50;2.50;;;;;7.88;97.21;101280.97;5035164;28;45353;-71
2021/11/05 05:17:31;;;;;;;;;3.00;3.00;;;;;7.94;97.04;101298.31;5034917;28;45477;-70
2021/11/05 05:19:57;;;;;;;;;4.75;4.00;;;;;7.93;96.64;101300.09;5035569;28;46004;-69
2021/11/05 05:22:22;;;;;;;;;8.50;4.00;;;;;7.94;97.46;101306.16;5036082;28;45171;-69
2021/11/05 05:24:48;;;;;;;;;4.75;3.00;;;;;7.93;96.87;101300.09;5035173;28;45336;-70
2021/11/05 05:27:13;;;;;;;;;6.00;2.75;;;;;7.96;97.65;101305.25;5050418;28;45621;-72
2021/11/05 05:29:38;;;;;;;;;3.00;3.00;;;;;7.98;97.92;101311.34;5034517;28;45958;-69
2021/11/05 05:32:04;;;;;;;;;5.25;4.00;;;;;8.00;97.46;101313.94;5034272;28;45274;-70
2021/11/05 05:34:30;;;;;;;;;7.75;3.00;;;;;7.98;97.24;101311.34;5034444;28;45492;-71
2021/11/05 05:36:55;;;;;;;;;3.50;3.50;;;;;8.06;97.49;101315.59;5034844;28;45559;-69
2021/11/05 05:39:20;;;;;;;;;5.00;4.00;;;;;8.08;97.41;101325.16;5034143;28;45378;-71
2021/11/05 05:41:46;;;;;;;;;4.00;3.00;;;;;8.11;97.15;101319.88;5035433;28;45368;-69
2021/11/05 05:44:11;;;;;;;;;2.00;2.00;;;;;8.12;97.43;101329.44;5039515;28;45322;-71
2021/11/05 05:46:36;;;;;;;;;3.25;2.00;;;;;8.13;97.13;101331.19;5051909;28;45495;-71
2021/11/05 05:49:02;;;;;;;;;3.50;2.25;;;;;8.08;96.05;101329.53;5033312;27;46338;-69
2021/11/05 05:51:32;;;;;;;;;4.50;3.00;;;;;8.13;96.21;101338.16;5034318;28;45447;-70
2021/11/05 05:53:58;;;;;;;;;3.00;3.00;;;;;8.18;96.31;101346.81;5034983;28;45216;-69
2021/11/05 05:56:23;;;;;;;;;2.50;1.75;;;;;8.19;96.81;101344.16;5035344;28;45194;-71
2021/11/05 05:58:48;;;;;;;;;3.00;3.00;;;;;8.21;96.22;101345.91;5034853;28;45351;-70
2021/11/05 06:01:13;;;;;;;;;3.25;3.00;;;;;8.19;96.60;101349.41;5035378;28;45197;-69
2021/11/05 06:03:39;;;;;;;;;3.50;3.00;;;;;8.20;96.48;101355.50;5033480;28;45208;-70
2021/11/05 06:06:04;;;;;;;;;5.00;3.00;;;;;8.19;96.32;101354.66;5035027;28;45268;-71
2021/11/05 06:08:30;;;;;;;;;4.00;2.00;;;;;8.19;96.33;101359.00;5033787;28;45992;-69
2021/11/05 06:10:57;;;;;;;;;5.00;3.00;;;;;8.19;95.61;101365.13;5034028;27;45459;-70
2021/11/05 06:13:23;;;;;;;;;4.00;3.00;;;;;8.15;95.94;101360.84;5034036;28;45324;-69
2021/11/05 06:15:48;;;;;;;;;6.00;2.00;;;;;8.17;96.12;101366.91;5034019;28;45386;-70
2021/11/05 06:18:13;;;;;;;;;5.00;4.00;;;;;8.19;96.59;101377.38;5034081;28;45741;-70
2021/11/05 06:20:39;;;;;;;;;5.75;3.00;;;;;8.23;96.78;101380.81;5049501;28;45641;-70
2021/11/05 06:23:04;;;;;;;;;4.75;4.75;;;;;8.26;95.05;101378.97;5036642;28;45349;-70
2021/11/05 06:25:30;;;;;;;;;5.25;3.00;;;;;8.29;96.03;101376.31;5036820;28;45332;-70
2021/11/05 06:27:55;;;;;;;;;4.00;3.00;;;;;8.30;93.95;101393.75;5037160;28;46174;-69
2021/11/05 06:30:20;;;;;;;;;2.00;2.00;;;;;8.12;94.74;101362.63;5054340;28;45302;-70
2021/11/05 06:32:46;;;;;;;;;2.75;2.75;;;;;8.30;95.47;101401.63;5037337;28;45763;-70
2021/11/05 06:35:12;;;;;;;;;3.00;2.50;;;;;8.30;95.32;101404.25;5033784;28;45320;-70
2021/11/05 06:37:38;;;;;;;;;3.00;2.00;;;;;8.12;95.37;101376.63;5032070;28;47862;-69
2021/11/05 06:40:06;;;;;;;;;3.50;2.00;;;;;8.32;95.70;101410.31;5032398;28;45368;-70
2021/11/05 06:42:31;;;;;;;;;5.75;4.00;;;;;8.28;94.93;101406.03;5032385;28;45358;-70
2021/11/05 06:44:57;;;;;;;;;2.00;2.00;;;;;8.31;94.95;101411.22;5034087;28;45254;-69
2021/11/05 06:47:22;;;;;;;;;2.75;2.25;;;;;8.33;95.03;101413.84;5033878;28;45526;-69
2021/11/05 06:49:48;;;;;;;;;4.25;2.00;;;;;8.28;95.32;101419.13;5033798;28;45390;-69
2021/11/05 06:52:13;;;;;;;;;3.75;3.75;;;;;8.36;95.51;101431.25;5034912;28;45405;-69
2021/11/05 06:54:39;;;;;;;;;5.00;2.00;;;;;8.37;95.20;101430.34;5033972;28;45520;-70
2021/11/05 06:57:06;;;;;;;;;4.75;2.75;;;;;8.37;95.24;101440.84;5031953;27;48376;-70
2021/11/05 06:59:31;;;;;;;;;6.00;4.00;;;;;8.36;94.91;101450.47;5033266;28;45413;-69
2021/11/05 07:01:57;;;;;;;;;8.00;3.75;;;;;8.38;95.19;101447.81;5033085;28;45392;-69
2021/11/05 07:04:22;;;;;;;;;4.00;3.00;;;;;8.33;94.85;101440.91;5033099;28;45298;-69
2021/11/05 07:06:48;;;;;;;;;4.00;2.75;;;;;8.38;94.49;101450.44;5033468;28;45338;-69
2021/11/05 07:09:15;;;;;;;;;4.00;4.00;;;;;8.40;94.83;101456.53;5033413;28;45412;-71
2021/11/05 07:11:40;;;;;;;;;4.75;4.00;;;;;8.43;94.88;101459.09;5033700;28;45467;-69
2021/11/05 07:14:06;;;;;;;;;2.25;0.25;;;;;8.46;94.50;101464.28;5034230;28;45346;-71
2021/11/05 07:16:33;;;;;;;;;4.00;3.75;;;;;8.47;94.07;101466.88;5034057;28;46295;-70
2021/11/05 07:18:58;;;;;;;;;3.50;2.00;;;;;8.45;94.80;101466.06;5034017;28;45853;-71
2021/11/05 07:21:24;;;;;;;;;3.00;3.00;;;;;8.47;93.95;101480.00;5033060;28;45489;-70
2021/11/05 07:23:50;;;;;;;;;2.75;2.75;;;;;8.49;94.54;101480.03;5033913;28;45509;-70
2021/11/05 07:26:16;;;;;;;;;3.75;2.00;;;;;8.51;94.40;101490.47;5033394;28;46926;-70
2021/11/05 07:28:41;;;;;;;;;3.25;3.00;;;;;8.46;94.18;101482.63;5032372;28;45426;-70
2021/11/05 07:31:07;;;;;;;;;4.50;2.75;;;;;8.54;94.55;101499.16;5032496;28;45377;-71
2021/11/05 07:33:32;;;;;;;;;4.00;2.50;;;;;8.52;93.83;101503.56;5032658;28;45359;-71
2021/11/05 07:35:58;;;;;;;;;3.75;3.00;;;;;8.53;94.35;101502.69;5032502;28;45466;-69
2021/11/05 07:38:23;;;;;;;;;3.00;3.00;;;;;8.57;94.68;101516.59;5033699;28;45355;-71
2021/11/05 07:40:49;;;;;;;;;3.00;2.75;;;;;8.54;93.77;101508.78;5034069;28;45369;-70
2021/11/05 07:43:14;;;;;;;;;12.25;4.75;;;;;8.64;93.94;101530.47;5033203;28;45218;-70
2021/11/05 07:45:40;;;;;;;;;4.00;2.00;;;;;8.68;93.70;101525.13;5047727;28;47897;-69
2021/11/05 07:48:05;;;;;;;;;6.00;3.75;;;;;8.69;94.00;101520.78;5030737;28;45441;-69
2021/11/05 07:50:34;;;;;;;;;7.75;5.00;;;;;8.77;94.57;101524.97;5030612;28;46562;-70
2021/11/05 07:53:01;;;;;;;;;4.75;3.00;;;;;8.84;94.26;101527.50;5031399;28;45321;-71
2021/11/05 07:55:31;;;;;;;;;5.00;3.00;;;;;8.81;94.10;101517.06;5035332;28;45455;-72
2021/11/05 07:57:57;;;;;;;;;6.50;3.00;;;;;8.90;93.01;101544.00;5034607;28;45297;-71
2021/11/05 08:00:23;;;;;;;;;9.50;4.00;;;;;8.94;93.75;101550.03;5033490;28;45398;-71
2021/11/05 08:02:48;;;;;;;;;4.50;4.00;;;;;8.91;92.97;101545.72;5033598;28;45287;-70
2021/11/05 08:05:14;;;;;;;;;3.00;3.00;;;;;8.90;93.18;101549.25;5032519;28;46072;-70
2021/11/05 08:07:40;;;;;;;;;3.25;3.00;;;;;8.87;92.29;101554.56;5032142;28;45332;-70
2021/11/05 08:10:08;;;;;;;;;5.00;3.00;;;;;8.89;93.16;101565.00;5032283;28;45893;-69
2021/11/05 08:12:34;;;;;;;;;7.00;5.00;;;;;8.94;93.27;101573.66;5032270;28;45225;-71
2021/11/05 08:15:00;;;;;;;;;4.50;4.50;;;;;9.00;93.62;101573.56;5031883;28;46183;-69
2021/11/05 08:17:26;;;;;;;;;4.25;3.00;;;;;9.00;92.53;101567.47;5031889;28;45390;-72
2021/11/05 08:19:51;;;;;;;;;3.75;3.00;;;;;9.09;92.45;101583.03;5032287;28;45353;-70
2021/11/05 08:22:19;;;;;;;;;6.00;4.00;;;;;9.13;93.32;101574.22;5032300;28;45622;-71
2021/11/05 08:24:44;;;;;;;;;5.25;3.50;;;;;9.24;93.34;101589.78;5033212;28;45345;-70
2021/11/05 08:27:10;;;;;;;;;6.00;4.25;;;;;9.30;92.89;101588.78;5034712;28;45233;-70
2021/11/05 08:29:36;;;;;;;;;5.25;4.00;;;;;9.37;93.21;101587.78;5035465;28;45208;-70
2021/11/05 08:32:01;;;;;;;;;6.00;4.00;;;;;9.44;93.08;101591.16;5035037;28;45693;-70
2021/11/05 08:34:27;;;;;;;;;7.75;6.00;;;;;9.53;93.14;101590.09;5034989;28;46554;-70
2021/11/05 08:36:52;;;;;;;;;7.25;5.75;;;;;9.62;92.67;101597.84;5035540;28;45800;-70
2021/11/05 08:39:17;;;;;;;;;6.00;6.00;;;;;9.69;91.20;101594.19;5035460;28;45340;-71
2021/11/05 08:41:43;;;;;;;;;4.75;3.00;;;;;9.74;92.07;101602.84;5034978;28;45360;-70
2021/11/05 08:44:10;;;;;;;;;4.25;4.25;;;;;9.76;91.85;101600.16;5034868;28;46014;-71
2021/11/05 08:46:37;;;;;;;;;5.50;4.25;;;;;9.82;91.64;101601.81;5034799;28;45318;-70
2021/11/05 08:49:06;;;;;;;;;5.75;5.00;;;;;9.86;91.92;101606.09;5036822;28;45417;-74
2021/11/05 08:51:32;;;;;;;;;8.25;6.50;;;;;9.88;91.53;101614.81;5036495;28;45389;-70
2021/11/05 08:53:57;;;;;;;;;4.00;3.75;;;;;9.92;91.04;101622.59;5040722;28;45335;-70
2021/11/05 08:56:23;;;;;;;;;7.75;4.25;;;;;9.89;90.94;101616.56;5035875;28;45305;-70
2021/11/05 08:58:48;;;;;;;;;5.00;3.00;;;;;9.96;90.89;101633.03;5038389;28;45318;-71
2021/11/05 09:01:15;;;;;;;;;6.75;5.50;;;;;9.98;90.83;101633.88;5036582;28;45540;-71
2021/11/05 09:03:41;;;;;;;;;4.25;4.25;;;;;9.95;91.06;101626.94;5034687;28;47140;-69
2021/11/05 09:06:07;;;;;;;;;6.50;5.00;;;;;10.01;90.98;101631.19;5034452;28;45403;-71
2021/11/05 09:08:33;;;;;;;;;6.25;4.75;;;;;10.03;87.88;101646.03;5034900;28;45229;-69
2021/11/05 09:11:01;;;;;;;;;8.00;3.75;;;;;10.05;89.61;101630.22;5035660;28;45392;-71
2021/11/05 09:13:27;;;;;;;;;6.00;5.00;;;;;9.97;90.94;101605.88;5035251;28;45301;-70
2021/11/05 09:15:52;;;;;;;;;10.75;9.25;;;;;10.28;90.53;101637.63;5035067;28;45239;-70
2021/11/05 09:18:18;;;;;;;;;7.00;4.50;;;;;10.33;90.59;101648.06;5035462;28;45251;-70
2021/11/05 09:20:45;;;;;;;;;6.50;4.00;;;;;10.35;90.87;101646.25;5035376;28;45479;-71
2021/11/05 09:23:11;;;;;;;;;14.00;9.00;;;;;10.42;90.06;101658.41;5034859;28;46276;-70
2021/11/05 09:25:37;;;;;;;;;4.25;4.00;;;;;10.35;87.35;101662.88;5035855;28;45476;-70
2021/11/05 09:28:03;;;;;;;;;8.75;6.00;;;;;10.25;89.66;101671.03;5035001;28;45324;-70
2021/11/05 09:30:28;;;;;;;;;6.00;5.00;;;;;10.15;90.00;101665.97;5034314;28;45467;-70
2021/11/05 09:32:54;;;;;;;;;6.75;4.75;;;;;10.03;89.18;101667.06;5037538;28;46289;-70
2021/11/05 09:35:21;;;;;;;;;4.75;4.25;;;;;9.90;88.92;101670.84;5038281;27;45280;-69
2021/11/05 09:37:49;;;;;;;;;4.25;4.00;;;;;9.81;89.17;101677.13;5036261;28;45296;-68
2021/11/05 09:40:16;;;;;;;;;6.25;4.50;;;;;9.71;89.37;101671.22;5035150;28;45210;-71
2021/11/05 09:42:42;;;;;;;;;6.25;4.75;;;;;9.65;89.87;101673.94;5035103;28;46034;-69
2021/11/05 09:45:09;;;;;;;;;5.00;3.25;;;;;9.64;89.58;101683.59;5034194;28;45441;-69
2021/11/05 09:47:35;;;;;;;;;13.50;9.25;;;;;9.69;90.45;101687.88;5035378;28;45403;-70
2021/11/05 09:50:00;;;;;;;;;6.00;4.00;;;;;9.77;90.93;101685.97;5050502;28;45258;-69
2021/11/05 09:52:26;;;;;;;;;4.00;4.00;;;;;9.81;89.25;101694.69;5034797;28;46215;-70
2021/11/05 09:54:53;;;;;;;;;5.75;5.75;;;;;9.90;90.48;101695.34;5034861;28;45279;-69
2021/11/05 09:57:19;;;;;;;;;9.50;5.00;;;;;10.02;89.66;101696.00;5034553;28;45412;-69
2021/11/05 09:59:45;;;;;;;;;4.75;4.50;;;;;10.12;89.18;101701.94;5034636;28;45619;-71
2021/11/05 10:02:13;;;;;;;;;14.00;8.00;;;;;10.26;89.80;101702.53;5032722;28;48301;-71
2021/11/05 10:04:38;;;;;;;;;6.50;6.00;;;;;10.45;89.34;101704.81;5033989;28;45311;-70
2021/11/05 10:07:05;;;;;;;;;7.00;5.00;;;;;10.60;90.05;101715.03;5034315;28;45382;-70
2021/11/05 10:09:52;;;;;;;;;6.75;5.25;;;;;10.74;89.28;101721.72;5034739;28;45444;-70
2021/11/05 10:12:20;;;;;;;;;10.75;8.00;;;;;10.85;88.28;101718.84;5033950;28;46184;-70
2021/11/05 10:14:53;;;;;;;;;6.00;5.00;;;;;10.94;87.88;101719.50;5034190;28;45465;-70
2021/11/05 10:17:19;;;;;;;;;8.25;7.00;;;;;11.04;88.27;101728.03;5035619;28;45248;-71
2021/11/05 10:19:55;;;;;;;;;6.00;4.00;;;;;11.15;88.43;101735.69;5052250;28;45460;-70
2021/11/05 10:22:52;;;;;;;;;6.25;5.00;;;;;11.20;87.62;101730.31;5035137;28;46424;-70
2021/11/05 10:25:21;;;;;;;;;4.50;4.00;;;;;11.14;86.51;101723.44;5025778;28;45338;-69
2021/11/05 10:27:59;;;;;;;;;4.00;3.00;;;;;11.03;86.99;101722.81;5036923;28;45325;-70
2021/11/05 10:30:24;;;;;;;;;5.00;3.75;;;;;11.00;81.31;101736.06;5036795;28;45531;-71
2021/11/05 10:32:54;;;;;;;;;6.50;5.50;;;;;10.88;83.06;101732.81;5033590;28;46072;-70
2021/11/05 10:35:21;;;;;;;;;5.50;3.00;;;;;10.89;84.80;101745.06;5034369;28;45435;-69
2021/11/05 10:37:47;;;;;;;;;7.75;4.25;;;;;10.88;85.27;101735.44;5033904;28;45403;-71
2021/11/05 10:40:15;;;;;;;;;6.00;3.75;;;;;10.93;86.79;101743.22;5034069;28;45299;-70
2021/11/05 10:42:46;;;;;;;;;11.75;6.00;;;;;11.09;86.30;101741.94;5032320;28;48600;-68
2021/11/05 10:45:13;;;;;;;;;8.25;6.25;;;;;11.31;87.34;101744.09;5035447;28;45252;-69
2021/11/05 10:47:53;;;;;;;;;6.25;5.00;;;;;11.48;86.47;101750.72;5034908;28;45395;-70
2021/11/05 10:50:28;;;;;;;;;4.25;4.00;;;;;11.60;87.06;101747.75;5033190;28;45389;-70
2021/11/05 10:53:15;;;;;;;;;5.00;3.50;;;;;11.66;85.52;101747.59;5033523;28;46225;-70
2021/11/05 10:55:58;;;;;;;;;3.50;3.00;;;;;11.79;86.37;101744.63;5033864;28;45398;-68
2021/11/05 10:58:23;;;;;;;;;6.25;4.50;;;;;11.90;85.52;101753.13;5034839;28;45308;-71
2021/11/05 11:01:00;;;;;;;;;3.00;2.50;;;;;11.93;85.70;101753.03;5035353;28;45501;-71
2021/11/05 11:03:32;;;;;;;;;7.50;3.25;;;;;11.97;84.63;101748.56;5035013;28;45609;-70
2021/11/05 11:06:06;;;;;;;;;3.00;3.00;;;;;12.08;85.07;101741.25;5034193;28;45420;-70
2021/11/05 11:08:34;;;;;;;;;6.25;6.25;;;;;12.19;85.76;101743.56;5034612;28;45400;-71
2021/11/05 11:11:20;;;;;;;;;9.50;7.00;;;;;12.23;84.06;101744.34;5039736;28;45388;-70
2021/11/05 11:13:49;;;;;;;;;5.25;3.75;;;;;12.28;85.07;101742.44;5051749;28;47399;-71
2021/11/05 11:16:21;;;;;;;;;5.50;4.75;;;;;12.29;85.04;101748.59;5035493;28;45232;-70
2021/11/05 11:18:47;;;;;;;;;5.25;3.00;;;;;12.30;85.02;101739.78;5034063;28;45220;-69
2021/11/05 11:21:13;;;;;;;;;4.25;3.00;;;;;12.36;84.74;101737.81;5033391;28;45535;-70
2021/11/05 11:23:39;;;;;;;;;3.25;3.00;;;;;12.45;84.09;101749.00;5032875;28;46237;-70
2021/11/05 11:26:04;;;;;;;;;9.75;6.50;;;;;12.50;84.98;101745.34;5031333;28;45329;-72
2021/11/05 11:28:29;;;;;;;;;11.75;10.00;;;;;12.62;84.18;101740.59;5033332;28;45608;-72
2021/11/05 11:30:55;;;;;;;;;7.25;6.00;;;;;12.62;84.26;101735.31;5033650;28;45499;-70
2021/11/05 11:33:21;;;;;;;;;7.00;6.25;;;;;12.68;83.80;101740.41;5032518;28;46357;-71
2021/11/05 11:35:47;;;;;;;;;14.50;12.25;;;;;12.74;82.86;101734.09;5033111;28;45461;-70
2021/11/05 11:38:15;;;;;;;;;26.00;19.50;;;;;12.73;80.98;101737.66;5033037;28;45371;-71
2021/11/05 11:40:42;;;;;;;;;20.00;14.00;;;;;12.71;82.80;101741.16;5033086;28;45377;-69
2021/11/05 11:43:08;;;;;;;;;19.50;16.75;;;;;12.76;83.17;101738.41;5032878;28;45217;-70
2021/11/05 11:45:43;;;;;;;;;8.75;8.25;;;;;12.83;80.74;101734.66;5032471;28;45416;-70
2021/11/05 11:48:09;;;;;;;;;5.75;4.25;;;;;12.79;80.77;101729.53;5031281;28;45273;-71
2021/11/05 11:50:37;;;;;;;;;4.00;4.00;;;;;12.78;82.86;101741.00;5033398;28;45299;-70
2021/11/05 11:53:09;;;;;;;;;7.25;4.25;;;;;12.64;76.91;101736.97;5032693;28;46574;-70
2021/11/05 11:55:39;;;;;;;;;2.75;2.75;;;;;12.56;82.02;101750.44;5033098;27;45222;-70
2021/11/05 11:58:19;;;;;;;;;5.25;4.00;;;;;12.51;82.76;101741.78;5032963;28;45259;-70
2021/11/05 12:00:47;;;;;;;;;5.00;4.00;;;;;12.46;81.23;101737.53;5033549;28;45335;-71
2021/11/05 12:03:16;;;;;;;;;18.50;15.25;;;;;12.02;82.46;101678.13;5036579;28;46399;-71
2021/11/05 12:05:44;;;;;;;;;2.25;2.25;;;;;12.49;82.60;101742.72;5037428;28;45335;-70
2021/11/05 12:08:18;;;;;;;;;7.25;5.75;;;;;12.50;83.07;101741.81;5035510;28;45286;-69
2021/11/05 12:10:46;;;;;;;;;7.25;3.25;;;;;12.49;82.15;101743.59;5033723;28;45374;-71
2021/11/05 12:13:33;;;;;;;;;5.00;4.50;;;;;12.50;82.57;101741.81;5035247;28;45439;-71
2021/11/05 12:16:13;;;;;;;;;4.25;4.00;;;;;12.56;82.97;101741.63;5035509;28;45392;-71
2021/11/05 12:19:03;;;;;;;;;4.25;2.75;;;;;12.59;81.50;101746.81;5050701;28;45393;-69
2021/11/05 12:21:38;;;;;;;;;8.75;5.75;;;;;12.61;81.56;101745.00;5035779;28;45319;-70
2021/11/05 12:24:16;;;;;;;;;5.25;3.00;;;;;12.63;79.39;101748.47;5036399;28;46235;-71
2021/11/05 12:26:45;;;;;;;;;1.50;0.75;;;;;12.65;80.54;101751.91;5035041;28;45381;-70
2021/11/05 12:29:37;;;;;;;;;7.25;4.00;;;;;12.66;81.86;101748.38;5034834;28;45364;-70